createdAt,value
2019-03-28T07:18:41.715Z,90.40
2019-03-28T07:27:37.080Z,90.20
2019-03-28T07:30:45.364Z,90.10
2019-03-28T07:36:29.702Z,90.60
2019-03-28T07:39:13.931Z,90.30
2019-03-28T07:41:59.800Z,90.30
2019-03-28T07:45:24.633Z,90.30
2019-03-28T07:48:03.834Z,90.30
2019-03-28T07:56:31.345Z,90.10
2019-03-28T07:59:04.911Z,90.10
2019-03-28T08:01:34.938Z,90.10
2019-03-28T08:06:53.075Z,90.00
2019-03-28T08:09:35.793Z,89.50
2019-03-28T08:11:54.410Z,88.90
2019-03-28T08:14:24.357Z,88.00
2019-03-28T08:16:55.031Z,86.70
2019-03-28T08:19:25.374Z,86.10
2019-03-28T08:21:56.243Z,85.10
2019-03-28T08:24:27.661Z,84.00
2019-03-28T08:26:57.497Z,84.00
2019-03-28T08:29:27.440Z,82.10
2019-03-28T08:31:57.703Z,81.90
2019-03-28T08:34:31.253Z,80.60
2019-03-28T08:37:01.581Z,79.50
2019-03-28T08:39:31.859Z,80.40
2019-03-28T08:42:03.267Z,80.40
2019-03-28T08:44:33.180Z,80.40
2019-03-28T09:09:31.447Z,77.30
2019-03-28T09:12:07.624Z,77.50
2019-03-28T09:20:50.979Z,77.40
2019-03-28T09:23:26.885Z,76.70
2019-03-28T09:29:09.695Z,76.90
2019-03-28T09:31:45.187Z,76.50
2019-03-28T09:34:25.832Z,75.40
2019-03-28T09:37:00.639Z,75.10
2019-03-28T09:39:38.141Z,74.20
2019-03-28T09:42:22.737Z,75.10
2019-03-28T09:54:20.109Z,75.00
2019-03-28T09:59:44.909Z,75.20
2019-03-28T10:02:15.833Z,75.30
2019-03-28T10:04:49.835Z,75.40
2019-03-28T10:07:21.568Z,75.40
2019-03-28T10:10:09.266Z,75.30
2019-03-28T10:13:02.339Z,75.50
2019-03-28T10:15:44.244Z,75.60
2019-03-28T10:18:18.561Z,75.30
2019-03-28T10:20:57.402Z,74.90
2019-03-28T10:23:28.228Z,74.60
2019-03-28T10:26:01.059Z,74.30
2019-03-28T10:28:33.656Z,74.30
2019-03-28T10:31:15.728Z,74.40
2019-03-28T10:33:36.875Z,74.70
2019-03-28T10:36:08.421Z,74.30
2019-03-28T10:38:40.937Z,74.30
2019-03-28T10:41:19.775Z,74.20
2019-03-28T10:53:19.179Z,73.50
2019-03-28T11:14:39.531Z,70.00
2019-03-28T11:23:34.949Z,67.00
2019-03-28T11:26:26.630Z,69.80
2019-03-28T11:32:30.652Z,71.10
2019-03-28T11:38:19.272Z,72.90
2019-03-28T11:47:44.168Z,73.90
2019-03-28T11:50:23.054Z,73.90
2019-03-28T11:52:58.694Z,74.40
2019-03-28T11:55:31.927Z,74.70
2019-03-28T12:01:07.660Z,74.60
2019-03-28T12:24:35.762Z,74.10
2019-03-28T12:27:44.630Z,73.90
2019-03-28T12:30:28.078Z,73.30
2019-03-28T12:33:02.742Z,73.20
2019-03-28T12:35:34.665Z,73.20
2019-03-28T12:41:57.201Z,73.10
2019-03-28T12:44:56.439Z,72.70
2019-03-28T12:47:49.263Z,72.90
2019-03-28T12:50:38.110Z,73.30
2019-03-28T12:56:16.524Z,73.60
2019-03-28T12:58:55.641Z,74.00
2019-03-28T13:04:41.823Z,73.90
2019-03-28T13:13:13.911Z,74.00
2019-03-28T13:15:46.390Z,74.10
2019-03-28T13:18:18.322Z,74.20
2019-03-28T13:20:48.949Z,74.50
2019-03-28T13:23:22.526Z,74.20
2019-03-28T13:25:56.216Z,74.00
2019-03-28T13:28:32.760Z,74.00
2019-03-28T13:31:07.831Z,74.10
2019-03-28T13:33:37.809Z,73.90
2019-03-28T13:36:21.454Z,74.00
2019-03-28T13:38:55.060Z,73.80
2019-03-28T13:41:32.661Z,73.70
2019-03-28T13:44:04.599Z,73.20
2019-03-28T13:46:37.347Z,73.10
2019-03-28T13:49:17.080Z,72.80
2019-03-28T13:51:47.799Z,72.40
2019-03-28T13:54:23.224Z,72.50
2019-03-28T13:56:53.287Z,72.10
2019-03-28T13:59:36.928Z,72.00
2019-03-28T14:05:12.942Z,71.00
2019-03-28T14:07:42.816Z,71.40
2019-03-28T14:16:30.445Z,71.30
2019-03-28T14:19:01.612Z,71.40
2019-03-28T14:21:33.632Z,71.30
2019-03-28T14:24:42.634Z,71.20
2019-03-28T14:27:14.008Z,68.70
2019-03-28T14:39:26.552Z,70.20
2019-03-28T14:41:12.708Z,70.20
2019-03-28T14:46:45.983Z,71.10
2019-03-28T14:49:23.728Z,71.10
2019-03-28T14:52:06.220Z,70.40
2019-03-28T14:57:40.833Z,71.00
2019-03-28T15:00:47.044Z,71.10
2019-03-28T15:03:27.307Z,71.20
2019-03-28T15:05:55.941Z,71.10
2019-03-28T15:08:37.601Z,71.00
2019-03-28T15:14:01.281Z,71.10
2019-03-28T15:16:37.545Z,70.80
2019-03-28T15:19:22.845Z,70.80
2019-03-28T15:22:04.536Z,69.90
2019-03-28T15:27:31.222Z,69.60
2019-03-28T15:30:06.861Z,69.50
2019-03-28T15:35:32.775Z,69.20
2019-03-28T15:41:07.452Z,71.30
2019-03-28T15:46:32.081Z,73.80
2019-03-28T15:49:08.123Z,74.80
2019-03-28T15:51:41.377Z,75.00
2019-03-28T15:54:12.889Z,75.60
2019-03-28T15:56:43.751Z,75.90
2019-03-28T15:59:20.787Z,76.30
2019-03-28T16:01:53.351Z,76.80
2019-03-28T16:04:25.127Z,77.40
2019-03-28T16:06:55.192Z,77.40
2019-03-28T16:09:26.425Z,77.60
2019-03-28T16:12:02.358Z,77.80
2019-03-28T16:14:28.409Z,78.10
2019-03-28T16:16:58.807Z,78.40
2019-03-28T16:19:45.031Z,78.60
2019-03-28T16:22:15.655Z,78.60
2019-03-28T16:24:46.641Z,78.70
2019-03-28T16:27:16.671Z,79.00
2019-03-28T16:29:49.891Z,79.30
2019-03-28T16:32:21.294Z,79.40
2019-03-28T16:34:54.206Z,80.00
2019-03-28T16:37:24.818Z,80.00
2019-03-28T16:39:54.676Z,80.00
2019-03-28T16:42:24.587Z,79.80
2019-03-28T16:44:56.081Z,80.10
2019-03-28T16:47:26.823Z,80.20
2019-03-28T16:49:56.683Z,80.50
2019-03-28T16:52:26.672Z,80.60
2019-03-28T16:54:59.082Z,80.80
2019-03-28T17:00:37.133Z,81.30
2019-03-28T17:03:14.497Z,81.40
2019-03-28T17:05:47.243Z,81.50
2019-03-28T17:08:23.587Z,81.30
2019-03-28T17:10:57.513Z,81.50
2019-03-28T17:13:29.170Z,81.70
2019-03-28T17:15:59.863Z,81.80
2019-03-28T17:18:31.255Z,82.00
2019-03-28T17:23:54.719Z,82.40
2019-03-28T17:26:26.843Z,82.80
2019-03-28T17:28:57.543Z,82.70
2019-03-28T17:31:30.364Z,82.90
2019-03-28T17:34:01.040Z,83.00
2019-03-28T17:36:36.731Z,83.00
2019-03-28T17:39:08.946Z,83.30
2019-03-28T17:41:40.699Z,83.40
2019-03-28T17:44:13.001Z,83.50
2019-03-28T17:46:42.528Z,83.70
2019-03-28T17:49:12.433Z,83.70
2019-03-28T17:51:47.576Z,83.80
2019-03-28T17:54:19.855Z,83.80
2019-03-28T17:56:49.815Z,83.90
2019-03-28T17:59:19.817Z,84.00
2019-03-28T18:01:49.798Z,84.00
2019-03-28T18:04:23.033Z,84.30
2019-03-28T18:06:51.384Z,84.50
2019-03-28T18:09:21.326Z,84.70
2019-03-28T18:12:00.707Z,84.80
2019-03-28T18:14:30.673Z,85.00
2019-03-28T18:17:06.838Z,85.20
2019-03-28T18:19:36.842Z,85.10
2019-03-28T18:22:09.108Z,85.30
2019-03-28T18:24:39.713Z,85.50
2019-03-28T18:27:10.458Z,85.60
2019-03-28T18:29:41.816Z,85.60
2019-03-28T18:32:11.829Z,85.80
2019-03-28T18:34:42.057Z,86.00
2019-03-28T18:37:12.094Z,86.00
2019-03-28T18:39:42.395Z,86.10
2019-03-28T18:42:14.198Z,86.30
2019-03-28T18:44:48.679Z,86.40
2019-03-28T18:53:10.404Z,86.70
2019-03-28T18:55:45.158Z,86.90
2019-03-28T18:58:23.818Z,86.90
2019-03-28T19:01:04.477Z,86.80
2019-03-28T19:06:45.007Z,87.30
2019-03-28T19:12:37.468Z,87.80
2019-03-28T19:15:24.879Z,87.90
2019-03-28T19:18:38.123Z,88.10
2019-03-28T19:24:28.574Z,88.40
2019-03-28T19:45:57.157Z,89.80
2019-03-28T20:04:05.112Z,90.30
2019-03-28T20:06:38.885Z,90.40
2019-03-28T20:09:28.511Z,90.70
2019-03-28T20:15:21.417Z,90.50
2019-03-28T20:26:30.586Z,90.60
2019-03-28T20:29:19.639Z,90.70
2019-03-28T20:31:59.650Z,90.80
2019-03-28T20:34:39.486Z,91.00
2019-03-28T20:37:09.801Z,91.00
2019-03-28T20:39:41.462Z,90.90
2019-03-28T20:42:11.545Z,91.00
2019-03-28T20:44:44.742Z,91.10
2019-03-28T20:47:14.807Z,91.10
2019-03-28T20:49:46.878Z,91.20
2019-03-28T20:52:19.069Z,91.20
2019-03-28T20:54:51.102Z,91.30
2019-03-28T20:57:20.928Z,91.30
2019-03-28T20:59:55.173Z,91.40
2019-03-28T21:02:26.299Z,91.50
2019-03-28T21:04:57.799Z,91.50
2019-03-28T21:07:29.676Z,91.60
2019-03-28T21:10:00.209Z,91.70
2019-03-28T21:12:30.204Z,91.70
2019-03-28T21:15:14.631Z,91.80
2019-03-28T21:17:48.791Z,91.80
2019-03-28T21:20:19.761Z,91.70
2019-03-28T21:22:49.766Z,91.70
2019-03-28T21:25:22.261Z,91.80
2019-03-28T21:28:04.743Z,91.90
2019-03-28T21:30:47.364Z,91.90
2019-03-28T21:33:14.863Z,91.90
2019-03-28T21:35:46.000Z,91.90
2019-03-28T21:38:17.545Z,92.00
2019-03-28T21:40:59.528Z,92.00
2019-03-28T21:43:32.102Z,92.10
2019-03-28T21:46:04.155Z,92.10
2019-03-28T21:48:38.223Z,92.10
2019-03-28T21:51:15.309Z,92.10
2019-03-28T21:53:56.568Z,92.20
2019-03-28T21:56:25.241Z,92.20
2019-03-28T21:58:57.193Z,92.20
2019-03-28T22:07:19.515Z,92.30
2019-03-28T22:09:57.130Z,92.30
2019-03-28T22:12:38.146Z,92.30
2019-03-28T22:24:29.870Z,92.30
2019-03-28T22:27:26.120Z,92.40
2019-03-28T22:48:19.150Z,92.70
2019-03-28T22:59:46.244Z,92.90
2019-03-28T23:02:20.884Z,92.80
2019-03-28T23:14:14.693Z,92.90
2019-03-28T23:16:49.810Z,92.90
2019-03-28T23:19:47.514Z,92.90
2019-03-28T23:22:39.200Z,93.00
2019-03-28T23:25:16.027Z,93.00
2019-03-28T23:27:50.124Z,93.00
2019-03-28T23:30:23.690Z,93.00
2019-03-28T23:32:59.561Z,93.00
2019-03-28T23:35:35.499Z,93.10
2019-03-28T23:38:05.549Z,93.10
2019-03-28T23:40:38.132Z,93.10
2019-03-28T23:43:08.355Z,93.10
2019-03-28T23:45:42.818Z,93.10
2019-03-28T23:48:18.187Z,93.20
2019-03-28T23:50:49.875Z,93.20
2019-03-28T23:53:23.320Z,93.20
2019-03-28T23:55:57.362Z,93.10
2019-03-28T23:58:32.704Z,93.10
